Time;durP1;ratioP1;P1;durP2;ratioP2;P2;SDS_P1;SDS_P2;PMS_P1;PMS_P2;Temp;Humidity;BMP_temperature;BMP_pressure;BME280_temperature;BME280_humidity;BME280_pressure;Samples;Min_cycle;Max_cycle;Signal;HPM_P1;HPM_P2
2023/08/17 00:01:53;;;;;;;18.47;8.23;;;21.20;99.90;;;;;;5112628;28;20246;-66
2023/08/17 00:04:40;;;;;;;13.23;8.07;;;21.20;99.90;;;;;;5113513;28;20203;-65
2023/08/17 00:07:27;;;;;;;10.67;8.60;;;21.20;99.90;;;;;;5113107;28;20665;-66
2023/08/17 00:10:16;;;;;;;11.50;8.47;;;21.10;99.90;;;;;;5112951;28;20560;-65
2023/08/17 00:13:04;;;;;;;16.10;8.57;;;21.20;99.90;;;;;;5112933;28;20203;-65
2023/08/17 00:15:51;;;;;;;16.57;8.97;;;21.10;99.90;;;;;;5092770;28;20199;-65
2023/08/17 00:18:38;;;;;;;12.87;8.47;;;21.00;99.90;;;;;;5092192;28;20261;-65
2023/08/17 00:21:25;;;;;;;11.27;7.60;;;21.00;99.90;;;;;;5091903;28;20634;-65
2023/08/17 00:24:13;;;;;;;16.07;8.77;;;21.00;99.90;;;;;;5092001;28;20226;-65
2023/08/17 00:27:02;;;;;;;14.03;8.50;;;21.00;99.90;;;;;;5091834;28;20667;-65
2023/08/17 00:29:49;;;;;;;14.40;8.60;;;20.90;99.90;;;;;;5091449;28;20196;-65
2023/08/17 00:32:36;;;;;;;13.50;9.47;;;20.90;99.90;;;;;;5092166;28;20241;-66
2023/08/17 00:35:24;;;;;;;13.50;8.40;;;20.90;99.90;;;;;;5091630;28;20207;-65
2023/08/17 00:38:11;;;;;;;17.43;9.47;;;20.80;99.90;;;;;;5091008;28;20216;-65
2023/08/17 00:40:58;;;;;;;12.50;9.20;;;20.70;99.90;;;;;;5090975;28;20196;-65
2023/08/17 00:43:46;;;;;;;15.30;9.10;;;20.60;99.90;;;;;;5091216;28;20250;-65
2023/08/17 00:46:34;;;;;;;16.33;9.33;;;20.60;99.90;;;;;;5092810;28;20207;-65
2023/08/17 00:49:21;;;;;;;15.13;9.20;;;20.60;99.90;;;;;;5090934;28;20535;-65
2023/08/17 00:52:08;;;;;;;13.97;8.57;;;20.50;99.90;;;;;;5091065;28;20223;-65
2023/08/17 00:54:56;;;;;;;13.20;9.00;;;20.50;99.90;;;;;;5090159;28;20216;-65
2023/08/17 00:57:43;;;;;;;14.67;9.50;;;20.40;99.90;;;;;;5091325;28;20280;-65
2023/08/17 01:00:31;;;;;;;15.63;9.70;;;20.40;99.90;;;;;;5091443;28;20281;-66
2023/08/17 01:03:19;;;;;;;15.73;9.40;;;20.30;99.90;;;;;;5090955;28;20196;-65
2023/08/17 01:06:06;;;;;;;13.53;8.93;;;20.20;99.90;;;;;;5091029;28;20328;-65
2023/08/17 01:08:54;;;;;;;13.20;9.43;;;20.20;99.90;;;;;;5096937;28;20210;-66
2023/08/17 01:11:45;;;;;;;13.67;8.90;;;20.10;99.90;;;;;;5111909;28;20701;-65
2023/08/17 01:14:37;;;;;;;11.63;8.73;;;20.10;99.90;;;;;;5112696;28;20195;-65
2023/08/17 01:17:29;;;;;;;15.27;9.60;;;20.10;99.90;;;;;;5112008;28;20191;-66
2023/08/17 01:20:16;;;;;;;16.13;9.40;;;20.10;99.90;;;;;;5111291;28;20218;-65
2023/08/17 01:23:06;;;;;;;13.37;8.83;;;20.10;99.90;;;;;;5111856;28;20207;-65
2023/08/17 01:25:53;;;;;;;12.60;8.90;;;20.10;99.90;;;;;;5111816;28;20191;-65
2023/08/17 01:28:40;;;;;;;18.80;9.80;;;20.00;99.90;;;;;;5111950;28;20198;-66
2023/08/17 01:31:31;;;;;;;16.43;9.67;;;20.00;99.90;;;;;;5111488;28;20210;-65
2023/08/17 01:34:20;;;;;;;16.80;9.30;;;20.00;99.90;;;;;;5111337;28;20200;-65
2023/08/17 01:37:08;;;;;;;18.40;9.43;;;20.10;99.90;;;;;;5111629;28;20654;-65
2023/08/17 01:39:57;;;;;;;12.47;9.30;;;20.00;99.90;;;;;;5111179;28;20218;-65
2023/08/17 01:42:44;;;;;;;19.60;9.20;;;20.00;99.90;;;;;;5112071;28;20328;-65
2023/08/17 01:45:31;;;;;;;13.57;9.27;;;19.90;99.90;;;;;;5111428;28;20325;-65
2023/08/17 01:48:19;;;;;;;15.90;8.77;;;19.80;99.90;;;;;;5111878;28;20218;-66
2023/08/17 01:51:06;;;;;;;18.77;9.03;;;19.80;99.90;;;;;;5110710;28;20218;-66
2023/08/17 01:53:53;;;;;;;14.53;9.57;;;19.70;99.90;;;;;;5111071;28;20772;-66
2023/08/17 01:56:41;;;;;;;17.20;9.37;;;19.80;99.90;;;;;;5111608;28;20327;-66
2023/08/17 01:59:29;;;;;;;16.10;9.10;;;19.80;99.90;;;;;;5112116;28;20694;-65
2023/08/17 02:02:17;;;;;;;14.03;8.80;;;19.80;99.90;;;;;;5097558;28;20224;-66
2023/08/17 02:05:04;;;;;;;12.00;8.60;;;19.80;99.90;;;;;;5092753;28;20203;-66
2023/08/17 02:07:52;;;;;;;19.40;9.27;;;19.80;99.90;;;;;;5098100;28;20227;-66
2023/08/17 02:10:39;;;;;;;15.03;9.03;;;19.80;99.90;;;;;;5076788;28;20207;-65
2023/08/17 02:13:28;;;;;;;14.00;9.03;;;19.80;99.90;;;;;;5085811;28;21167;-65
2023/08/17 02:16:15;;;;;;;15.83;9.90;;;19.80;99.90;;;;;;5098184;28;20210;-66
2023/08/17 02:19:02;;;;;;;18.00;9.40;;;19.80;99.90;;;;;;5097005;28;20215;-66
2023/08/17 02:21:50;;;;;;;13.40;9.23;;;19.80;99.90;;;;;;5097201;28;20256;-66
2023/08/17 02:24:37;;;;;;;15.70;9.57;;;19.80;99.90;;;;;;5098230;28;20198;-66
2023/08/17 02:27:24;;;;;;;19.10;9.23;;;19.80;99.90;;;;;;5098176;28;20577;-65
2023/08/17 02:30:14;;;;;;;11.60;9.03;;;19.80;99.90;;;;;;5096665;28;20603;-65
2023/08/17 02:33:01;;;;;;;13.10;9.27;;;19.80;99.90;;;;;;5096956;28;20196;-66
2023/08/17 02:35:49;;;;;;;14.13;9.47;;;19.80;99.90;;;;;;5098468;28;20227;-66
2023/08/17 02:38:37;;;;;;;14.07;8.90;;;19.80;99.90;;;;;;5097115;28;20278;-66
2023/08/17 02:41:24;;;;;;;14.70;9.10;;;19.70;99.90;;;;;;5098133;28;20204;-66
2023/08/17 02:44:11;;;;;;;12.30;8.90;;;19.70;99.90;;;;;;5097454;28;20257;-65
2023/08/17 02:47:00;;;;;;;14.73;9.00;;;19.70;99.90;;;;;;5096917;28;20733;-66
2023/08/17 02:49:49;;;;;;;17.60;9.70;;;19.70;99.90;;;;;;5098099;28;20191;-66
2023/08/17 02:52:36;;;;;;;15.77;9.70;;;19.70;99.90;;;;;;5096674;28;20267;-66
2023/08/17 02:55:23;;;;;;;12.97;9.07;;;19.70;99.90;;;;;;5096708;28;20668;-66
2023/08/17 02:58:10;;;;;;;13.13;9.70;;;19.70;99.90;;;;;;5096819;28;20196;-66
2023/08/17 03:00:57;;;;;;;16.53;9.73;;;19.70;99.90;;;;;;5099926;28;20223;-66
2023/08/17 03:03:46;;;;;;;11.63;9.43;;;19.60;99.90;;;;;;5117308;28;20665;-66
2023/08/17 03:06:33;;;;;;;14.97;9.23;;;19.60;99.90;;;;;;5117695;28;20202;-66
2023/08/17 03:09:20;;;;;;;15.77;9.83;;;19.50;99.90;;;;;;5117140;28;20206;-66
2023/08/17 03:12:08;;;;;;;14.50;9.90;;;19.50;99.90;;;;;;5117783;28;20225;-66
2023/08/17 03:14:55;;;;;;;14.83;9.70;;;19.50;99.90;;;;;;5117784;28;20191;-66
2023/08/17 03:17:44;;;;;;;12.00;9.30;;;19.50;99.90;;;;;;5114250;28;20199;-66
2023/08/17 03:20:33;;;;;;;16.73;9.77;;;19.40;99.90;;;;;;5115285;28;20242;-66
2023/08/17 03:23:20;;;;;;;17.37;9.47;;;19.40;99.90;;;;;;5114364;28;20206;-66
2023/08/17 03:26:15;;;;;;;22.17;10.10;;;19.40;99.90;;;;;;5113920;28;20199;-66
2023/08/17 03:29:02;;;;;;;14.83;9.40;;;19.40;99.90;;;;;;5114440;28;20240;-66
2023/08/17 03:31:50;;;;;;;15.60;9.30;;;19.30;99.90;;;;;;5114444;28;20191;-66
2023/08/17 03:34:38;;;;;;;19.63;9.87;;;19.40;99.90;;;;;;5114058;28;20227;-66
2023/08/17 03:37:26;;;;;;;16.13;9.47;;;19.40;99.90;;;;;;5114336;28;20221;-66
2023/08/17 03:40:13;;;;;;;19.40;9.97;;;19.40;99.90;;;;;;5113920;28;20215;-66
2023/08/17 03:43:01;;;;;;;18.77;10.83;;;19.50;99.90;;;;;;5113883;28;20206;-66
2023/08/17 03:45:48;;;;;;;14.63;9.73;;;19.60;99.90;;;;;;5113741;28;20195;-66
2023/08/17 03:48:42;;;;;;;13.07;9.33;;;19.60;99.90;;;;;;5113870;28;20210;-66
2023/08/17 03:51:29;;;;;;;14.27;8.97;;;19.70;99.90;;;;;;5113429;28;20241;-66
2023/08/17 03:54:18;;;;;;;14.97;9.97;;;19.70;99.90;;;;;;5114033;28;20206;-66
2023/08/17 03:57:05;;;;;;;14.23;10.17;;;19.60;99.90;;;;;;5114271;28;20199;-66
2023/08/17 03:59:53;;;;;;;18.50;10.50;;;19.60;99.90;;;;;;5114206;28;20704;-66
2023/08/17 04:02:40;;;;;;;14.73;10.27;;;19.60;99.90;;;;;;5113231;28;20230;-67
2023/08/17 04:05:28;;;;;;;18.13;10.87;;;19.60;99.90;;;;;;5113359;28;20195;-67
2023/08/17 04:08:17;;;;;;;14.43;10.27;;;19.70;99.90;;;;;;5113960;28;20214;-67
2023/08/17 04:11:11;;;;;;;13.03;8.90;;;19.70;99.90;;;;;;5113970;28;20661;-67
2023/08/17 04:14:05;;;;;;;17.87;9.77;;;19.80;99.90;;;;;;5113999;28;20283;-67
2023/08/17 04:16:53;;;;;;;12.90;9.50;;;19.60;99.90;;;;;;5113205;28;20227;-67
2023/08/17 04:19:43;;;;;;;16.40;10.13;;;19.60;99.90;;;;;;5113795;28;20222;-67
2023/08/17 04:22:31;;;;;;;18.03;10.27;;;19.60;99.90;;;;;;5113780;28;20361;-67
2023/08/17 04:25:21;;;;;;;18.77;10.67;;;19.70;99.90;;;;;;5114126;28;20208;-67
2023/08/17 04:28:09;;;;;;;15.50;10.83;;;19.70;99.90;;;;;;5113563;28;20195;-67
2023/08/17 04:30:57;;;;;;;20.37;10.47;;;19.80;99.90;;;;;;5112903;28;20569;-67
2023/08/17 04:33:44;;;;;;;17.37;10.47;;;19.90;99.90;;;;;;5112596;28;20191;-67
2023/08/17 04:36:31;;;;;;;16.77;10.03;;;20.00;99.90;;;;;;5112948;28;20202;-67
2023/08/17 04:39:25;;;;;;;15.33;9.53;;;20.10;99.90;;;;;;5113473;28;20254;-67
2023/08/17 04:42:13;;;;;;;14.70;10.30;;;20.10;99.90;;;;;;5113568;28;20279;-67
2023/08/17 04:45:01;;;;;;;14.67;10.33;;;20.20;99.90;;;;;;5112685;28;20202;-67
2023/08/17 04:47:49;;;;;;;18.27;10.73;;;20.20;99.90;;;;;;5112809;28;20204;-67
2023/08/17 04:50:36;;;;;;;13.33;9.20;;;20.10;99.90;;;;;;5113109;28;20188;-67
2023/08/17 04:53:23;;;;;;;14.43;10.00;;;20.10;99.90;;;;;;5112638;28;20195;-67
2023/08/17 04:59:14;;;;;;;12.43;9.87;;;20.10;99.90;;;;;;5112974;28;20551;-67
2023/08/17 05:02:05;;;;;;;19.80;10.40;;;20.20;99.90;;;;;;5112366;28;20229;-67
2023/08/17 05:04:53;;;;;;;14.10;9.67;;;20.30;99.90;;;;;;5113071;28;20199;-67
2023/08/17 05:07:44;;;;;;;16.50;9.67;;;20.40;99.90;;;;;;5112917;28;20206;-67
2023/08/17 05:10:31;;;;;;;12.63;10.10;;;20.50;99.90;;;;;;5113169;28;20187;-67
2023/08/17 05:13:19;;;;;;;15.23;10.53;;;20.30;99.90;;;;;;5112892;28;20191;-67
2023/08/17 05:16:13;;;;;;;14.97;10.10;;;20.30;99.90;;;;;;5112028;28;20191;-67
2023/08/17 05:19:05;;;;;;;15.80;10.40;;;20.50;99.90;;;;;;5112944;28;20669;-67
2023/08/17 05:21:53;;;;;;;18.07;10.80;;;20.70;99.90;;;;;;5112713;28;20768;-67
2023/08/17 05:24:41;;;;;;;13.87;10.90;;;20.90;99.90;;;;;;5113133;28;20196;-67
2023/08/17 05:27:29;;;;;;;18.90;11.30;;;21.10;99.90;;;;;;5112219;28;20195;-67
2023/08/17 05:30:19;;;;;;;17.37;10.63;;;21.30;99.90;;;;;;5112621;28;20199;-67
2023/08/17 05:33:06;;;;;;;22.03;10.77;;;21.30;99.90;;;;;;5112468;28;20199;-67
2023/08/17 05:35:56;;;;;;;14.60;10.60;;;21.40;99.90;;;;;;5112523;28;20296;-67
2023/08/17 05:38:43;;;;;;;14.87;10.53;;;21.50;99.90;;;;;;5112681;28;20206;-67
2023/08/17 05:41:30;;;;;;;16.17;10.77;;;21.60;99.90;;;;;;5111823;28;20214;-67
2023/08/17 05:44:20;;;;;;;12.73;10.03;;;21.70;99.90;;;;;;5111863;28;20195;-67
2023/08/17 05:47:07;;;;;;;16.60;10.00;;;21.70;99.90;;;;;;5112421;28;20195;-67
2023/08/17 05:49:57;;;;;;;15.23;10.60;;;21.60;99.90;;;;;;5112377;28;20241;-67
2023/08/17 05:52:59;;;;;;;15.57;10.87;;;21.70;99.90;;;;;;5112081;28;20223;-67
2023/08/17 05:55:49;;;;;;;14.63;11.47;;;21.90;99.90;;;;;;5112340;28;20198;-67
2023/08/17 05:58:37;;;;;;;18.10;12.00;;;22.10;99.90;;;;;;5112338;28;20202;-67
2023/08/17 06:01:24;;;;;;;15.57;11.47;;;22.10;99.90;;;;;;5111886;28;20615;-67
2023/08/17 06:04:14;;;;;;;20.87;11.53;;;22.30;99.90;;;;;;5112205;28;20207;-67
2023/08/17 06:07:01;;;;;;;18.27;11.93;;;22.40;99.90;;;;;;5112094;28;20191;-67
2023/08/17 06:09:53;;;;;;;20.33;11.63;;;22.50;99.90;;;;;;5111495;28;20195;-67
2023/08/17 06:12:43;;;;;;;22.30;11.13;;;22.60;99.90;;;;;;5111862;28;20195;-67
2023/08/17 06:15:30;;;;;;;20.37;11.90;;;22.70;99.90;;;;;;5111936;28;20666;-67
2023/08/17 06:18:21;;;;;;;20.87;12.03;;;22.80;99.90;;;;;;5111968;28;20202;-67
2023/08/17 06:21:08;;;;;;;16.17;12.10;;;22.80;99.90;;;;;;5110887;28;20218;-67
2023/08/17 06:23:55;;;;;;;26.97;12.53;;;22.80;99.90;;;;;;5111368;28;20273;-67
2023/08/17 06:26:45;;;;;;;18.40;12.17;;;22.90;99.90;;;;;;5111938;28;20199;-67
2023/08/17 06:29:32;;;;;;;19.53;10.97;;;23.00;99.90;;;;;;5111707;28;20274;-66
2023/08/17 06:32:20;;;;;;;18.93;11.90;;;23.10;99.90;;;;;;5111825;28;20199;-67
2023/08/17 06:35:09;;;;;;;15.97;11.03;;;23.20;99.90;;;;;;5111511;28;20686;-67
2023/08/17 06:37:57;;;;;;;16.87;10.60;;;23.10;99.90;;;;;;5111421;28;20217;-67
2023/08/17 06:40:45;;;;;;;15.20;11.37;;;23.20;99.90;;;;;;5111774;28;20223;-67
2023/08/17 06:43:41;;;;;;;17.43;11.40;;;23.00;99.90;;;;;;5111597;28;20546;-66
2023/08/17 06:46:28;;;;;;;16.67;10.70;;;23.00;99.90;;;;;;5112065;28;20195;-67
2023/08/17 06:49:16;;;;;;;22.33;11.37;;;23.10;99.90;;;;;;5111558;28;20550;-67
2023/08/17 06:52:03;;;;;;;15.47;10.83;;;23.10;99.90;;;;;;5113251;28;20333;-67
2023/08/17 06:54:50;;;;;;;19.63;10.97;;;23.10;99.90;;;;;;5115446;28;20195;-67
2023/08/17 06:57:38;;;;;;;20.83;11.10;;;23.10;99.90;;;;;;5115563;28;20317;-67
2023/08/17 07:00:40;;;;;;;17.57;11.57;;;23.10;99.90;;;;;;5115174;28;20214;-67
2023/08/17 07:03:27;;;;;;;18.77;12.13;;;23.10;99.90;;;;;;5115270;28;20199;-67
2023/08/17 07:06:15;;;;;;;19.27;11.83;;;23.10;99.90;;;;;;5114760;28;20226;-66
2023/08/17 07:09:04;;;;;;;17.93;11.83;;;23.20;99.90;;;;;;5115605;28;20206;-67
2023/08/17 07:11:52;;;;;;;20.30;12.30;;;23.60;99.90;;;;;;5114926;28;20199;-66
2023/08/17 07:14:39;;;;;;;16.83;11.27;;;23.80;99.90;;;;;;5115300;28;20201;-66
2023/08/17 07:17:28;;;;;;;16.60;11.75;;;24.00;99.90;;;;;;5114991;28;20202;-66
2023/08/17 07:20:15;;;;;;;20.60;11.70;;;24.20;99.90;;;;;;5114614;28;20222;-66
2023/08/17 07:23:02;;;;;;;21.33;12.77;;;24.40;99.90;;;;;;5114873;28;20682;-66
2023/08/17 07:25:50;;;;;;;24.58;13.70;;;24.50;99.90;;;;;;5114189;28;20195;-66
2023/08/17 07:28:46;;;;;;;24.80;13.55;;;24.80;99.90;;;;;;5114433;28;20195;-66
2023/08/17 07:31:37;;;;;;;23.92;13.30;;;25.20;99.90;;;;;;5114214;28;20218;-66
2023/08/17 07:34:25;;;;;;;23.50;12.77;;;25.60;99.90;;;;;;5113862;28;20206;-66
2023/08/17 07:37:14;;;;;;;18.98;12.20;;;25.70;99.90;;;;;;5114686;28;20222;-67
2023/08/17 07:40:03;;;;;;;24.23;12.30;;;25.70;99.90;;;;;;5113466;28;20200;-66
2023/08/17 07:42:50;;;;;;;19.27;11.50;;;25.70;99.90;;;;;;5114338;28;20570;-66
2023/08/17 07:45:37;;;;;;;16.80;10.95;;;25.70;99.90;;;;;;5114271;28;20577;-67
2023/08/17 07:48:25;;;;;;;20.05;10.50;;;25.70;99.90;;;;;;5114375;28;20206;-67
2023/08/17 07:51:13;;;;;;;19.80;10.27;;;25.60;99.90;;;;;;5113382;28;20863;-66
2023/08/17 07:54:01;;;;;;;17.13;10.05;;;25.70;99.90;;;;;;5113549;28;20684;-67
2023/08/17 07:56:48;;;;;;;19.63;10.70;;;25.90;99.90;;;;;;5113469;28;20202;-66
2023/08/17 07:59:36;;;;;;;17.45;10.68;;;26.20;99.90;;;;;;5114062;28;20195;-67
2023/08/17 08:02:23;;;;;;;16.75;10.95;;;26.40;99.90;;;;;;5113556;28;20223;-66
2023/08/17 08:05:15;;;;;;;19.17;9.77;;;26.20;99.90;;;;;;5115037;28;20183;-66
2023/08/17 08:08:05;;;;;;;18.55;10.48;;;26.20;99.90;;;;;;5114097;28;20203;-66
2023/08/17 08:10:53;;;;;;;14.07;10.10;;;26.10;99.90;;;;;;5093874;28;20196;-66
2023/08/17 08:13:55;;;;;;;18.42;9.60;;;26.20;99.90;;;;;;5092942;28;20200;-67
2023/08/17 08:16:42;;;;;;;17.67;10.02;;;26.50;99.90;;;;;;5093198;28;20282;-66
2023/08/17 08:19:30;;;;;;;13.85;9.85;;;26.70;99.90;;;;;;5093456;28;20196;-66
2023/08/17 08:22:17;;;;;;;14.88;10.02;;;26.60;99.90;;;;;;5110094;28;20219;-67
2023/08/17 08:25:07;;;;;;;16.45;9.13;;;27.00;99.90;;;;;;5113296;28;20278;-66
2023/08/17 08:27:54;;;;;;;13.25;9.27;;;27.40;99.90;;;;;;5113896;28;20211;-66
2023/08/17 08:30:41;;;;;;;15.30;8.80;;;27.30;99.90;;;;;;5113230;28;20199;-66
2023/08/17 08:33:28;;;;;;;15.60;8.65;;;27.60;99.90;;;;;;5113270;28;20277;-66
2023/08/17 08:36:16;;;;;;;13.32;8.75;;;27.80;99.90;;;;;;5113209;28;20207;-66
2023/08/17 08:39:04;;;;;;;14.00;8.43;;;28.20;99.90;;;;;;5112330;28;20206;-66
2023/08/17 08:41:53;;;;;;;10.93;8.30;;;28.50;99.90;;;;;;5113066;28;20212;-66
2023/08/17 08:44:40;;;;;;;19.05;9.05;;;28.60;99.90;;;;;;5113525;28;20203;-66
2023/08/17 08:47:27;;;;;;;14.13;8.38;;;28.50;99.90;;;;;;5112540;28;20195;-66
2023/08/17 08:50:22;;;;;;;12.57;8.63;;;28.40;99.90;;;;;;5113436;28;20203;-66
2023/08/17 08:53:15;;;;;;;19.30;8.85;;;28.10;99.90;;;;;;5111817;28;20210;-66
2023/08/17 08:56:03;;;;;;;14.82;8.98;;;28.30;99.90;;;;;;5113160;28;20203;-66
2023/08/17 08:58:54;;;;;;;14.60;9.52;;;28.40;99.90;;;;;;5112324;28;20195;-66
2023/08/17 09:01:45;;;;;;;12.02;8.00;;;28.40;99.90;;;;;;5104823;28;20365;-66
2023/08/17 09:04:34;;;;;;;16.42;9.90;;;28.60;99.90;;;;;;5091862;28;20207;-66
2023/08/17 09:07:29;;;;;;;15.40;9.40;;;29.00;99.90;;;;;;5091442;28;20699;-67
2023/08/17 09:10:17;;;;;;;13.07;8.45;;;29.40;99.90;;;;;;5090592;28;20206;-66
2023/08/17 09:13:06;;;;;;;18.05;8.82;;;29.50;99.90;;;;;;5091559;28;20215;-66
2023/08/17 09:15:57;;;;;;;13.63;8.75;;;30.00;99.90;;;;;;5090593;28;20204;-66
2023/08/17 09:18:46;;;;;;;12.77;7.65;;;30.40;99.90;;;;;;5090545;28;20571;-66
2023/08/17 09:21:34;;;;;;;9.80;7.60;;;30.80;99.90;;;;;;5090784;28;20207;-66
2023/08/17 09:24:21;;;;;;;10.10;6.82;;;31.20;99.90;;;;;;5091385;28;20574;-66
2023/08/17 09:27:09;;;;;;;10.88;7.10;;;31.40;99.90;;;;;;5090930;28;20572;-66
2023/08/17 09:30:03;;;;;;;13.60;6.72;;;31.40;95.20;;;;;;5091780;28;20231;-67
2023/08/17 09:32:52;;;;;;;11.65;6.30;;;31.60;93.80;;;;;;5090926;28;20203;-66
2023/08/17 09:35:39;;;;;;;8.15;6.05;;;31.40;93.20;;;;;;5090419;28;20677;-67
2023/08/17 09:38:27;;;;;;;8.35;5.65;;;31.40;81.00;;;;;;5092047;28;20207;-66
2023/08/17 09:41:14;;;;;;;8.00;5.97;;;30.60;92.70;;;;;;5090823;28;20223;-66
2023/08/17 09:44:01;;;;;;;8.68;6.20;;;30.60;84.00;;;;;;5090352;28;20203;-66
2023/08/17 09:46:58;;;;;;;9.35;6.05;;;31.20;93.00;;;;;;5090206;28;20210;-66
2023/08/17 09:49:53;;;;;;;8.18;5.30;;;31.30;86.10;;;;;;5090852;28;20227;-66
2023/08/17 09:52:49;;;;;;;12.20;5.10;;;31.80;86.50;;;;;;5090705;28;20286;-66
2023/08/17 09:55:47;;;;;;;10.57;5.38;;;32.00;77.00;;;;;;5064033;28;20615;-67
2023/08/17 09:58:34;;;;;;;8.00;5.20;;;31.90;72.70;;;;;;5090412;28;20615;-66
2023/08/17 10:01:21;;;;;;;10.57;5.55;;;32.30;66.30;;;;;;5090275;28;20593;-66
2023/08/17 10:04:10;;;;;;;5.68;4.78;;;32.30;70.00;;;;;;5091529;28;20204;-66
2023/08/17 10:07:01;;;;;;;7.88;5.30;;;32.40;64.40;;;;;;5089792;28;20191;-66
2023/08/17 10:09:54;;;;;;;6.72;5.00;;;32.40;70.40;;;;;;5090619;28;20245;-66
2023/08/17 10:12:51;;;;;;;10.13;4.70;;;32.10;67.40;;;;;;5090442;28;20207;-66
2023/08/17 10:15:39;;;;;;;7.78;4.97;;;31.90;68.10;;;;;;5089700;28;20230;-66
2023/08/17 10:18:30;;;;;;;10.77;5.05;;;32.30;73.70;;;;;;5090259;28;20227;-67
2023/08/17 10:21:21;;;;;;;8.38;4.15;;;32.80;67.20;;;;;;5090096;28;20220;-66
2023/08/17 10:24:10;;;;;;;4.53;4.05;;;33.00;68.90;;;;;;5089182;28;20568;-66
2023/08/17 10:26:57;;;;;;;9.52;4.68;;;33.40;66.50;;;;;;5092828;28;20200;-66
2023/08/17 10:29:46;;;;;;;8.38;4.88;;;33.50;64.20;;;;;;5094469;28;20195;-66
2023/08/17 10:32:34;;;;;;;12.40;4.88;;;33.60;60.70;;;;;;5095697;28;20202;-66
2023/08/17 10:35:23;;;;;;;14.57;4.90;;;33.50;62.10;;;;;;5095442;28;20719;-66
2023/08/17 10:38:10;;;;;;;9.10;5.05;;;33.20;63.50;;;;;;5094804;28;20611;-66
2023/08/17 10:41:10;;;;;;;6.43;5.03;;;32.80;65.80;;;;;;5079158;28;20659;-66
2023/08/17 10:43:58;;;;;;;8.48;4.70;;;32.30;66.80;;;;;;5094167;28;20208;-66
2023/08/17 10:46:46;;;;;;;7.80;4.80;;;31.60;68.40;;;;;;5094663;28;20206;-66
2023/08/17 10:49:35;;;;;;;9.73;5.10;;;31.00;68.80;;;;;;5095290;28;20270;-66
2023/08/17 10:52:29;;;;;;;6.88;4.75;;;30.50;71.00;;;;;;5094232;28;20650;-66
2023/08/17 10:55:18;;;;;;;9.57;4.80;;;29.90;69.00;;;;;;5093892;28;20204;-66
2023/08/17 10:58:08;;;;;;;7.57;5.07;;;29.50;73.00;;;;;;5093348;28;20653;-66
2023/08/17 11:00:55;;;;;;;11.73;4.88;;;29.10;76.20;;;;;;5094281;28;20622;-66
2023/08/17 11:03:43;;;;;;;11.13;4.50;;;29.00;81.10;;;;;;5094417;28;20286;-66
2023/08/17 11:06:31;;;;;;;8.18;4.70;;;28.80;82.80;;;;;;5093435;28;20227;-65
2023/08/17 11:09:18;;;;;;;13.18;5.07;;;28.80;80.40;;;;;;5093770;28;20199;-66
2023/08/17 11:12:06;;;;;;;15.45;5.50;;;28.70;87.50;;;;;;5094282;28;20188;-65
2023/08/17 11:14:59;;;;;;;8.40;5.03;;;28.60;99.90;;;;;;5092878;28;20611;-66
2023/08/17 11:17:46;;;;;;;11.68;4.78;;;28.20;92.10;;;;;;5094443;28;20203;-65
2023/08/17 11:20:33;;;;;;;9.05;4.70;;;28.00;95.50;;;;;;5093896;28;20780;-65
2023/08/17 11:23:20;;;;;;;6.25;4.70;;;27.70;99.90;;;;;;5092648;28;20199;-65
2023/08/17 11:26:08;;;;;;;10.20;5.10;;;27.50;99.90;;;;;;5092652;28;20200;-65
2023/08/17 11:28:55;;;;;;;6.68;4.90;;;26.90;99.90;;;;;;5092577;28;20192;-65
2023/08/17 11:31:44;;;;;;;8.98;4.85;;;26.40;99.90;;;;;;5092916;28;20188;-65
2023/08/17 11:34:31;;;;;;;13.63;5.32;;;26.30;99.90;;;;;;5092945;28;20254;-65
2023/08/17 11:37:18;;;;;;;12.23;5.00;;;26.20;99.90;;;;;;5092665;28;20199;-66
2023/08/17 11:40:09;;;;;;;17.25;4.72;;;26.00;99.90;;;;;;5092712;28;20195;-65
2023/08/17 11:42:57;;;;;;;11.40;4.20;;;25.90;99.90;;;;;;5092390;28;20316;-65
2023/08/17 11:45:44;;;;;;;8.40;4.15;;;25.80;99.90;;;;;;5093721;28;20199;-66
2023/08/17 11:48:33;;;;;;;12.23;4.35;;;25.70;99.90;;;;;;5093665;28;20252;-65
2023/08/17 11:51:29;;;;;;;8.90;3.40;;;25.70;99.90;;;;;;5093758;28;20220;-66
2023/08/17 11:54:16;;;;;;;20.70;4.40;;;25.20;99.90;;;;;;5093160;28;20211;-65
2023/08/17 11:57:03;;;;;;;5.88;3.28;;;25.10;99.90;;;;;;5093383;28;20195;-65
2023/08/17 11:59:53;;;;;;;6.50;3.60;;;25.10;99.90;;;;;;5093013;28;20235;-65
2023/08/17 12:02:43;;;;;;;6.25;3.15;;;24.90;99.90;;;;;;5092721;28;20240;-65
2023/08/17 12:05:32;;;;;;;5.53;2.88;;;25.30;99.90;;;;;;5092851;28;20196;-66
2023/08/17 12:08:19;;;;;;;7.25;2.58;;;25.60;99.90;;;;;;5092392;28;20200;-65
2023/08/17 12:11:06;;;;;;;12.63;2.80;;;26.00;99.90;;;;;;5091733;28;20667;-65
2023/08/17 12:13:54;;;;;;;3.88;2.40;;;26.20;99.90;;;;;;5092444;28;20282;-65
2023/08/17 12:16:50;;;;;;;4.97;2.47;;;26.60;99.90;;;;;;5092633;28;20586;-66
2023/08/17 12:19:37;;;;;;;5.43;2.10;;;27.10;99.90;;;;;;5091419;28;20793;-66
2023/08/17 12:22:26;;;;;;;5.28;2.30;;;27.70;93.70;;;;;;5091896;28;20589;-66
2023/08/17 12:25:13;;;;;;;6.15;2.00;;;28.00;94.40;;;;;;5092034;28;20206;-65
2023/08/17 12:28:01;;;;;;;3.97;2.28;;;27.90;88.80;;;;;;5092146;28;20331;-66
2023/08/17 12:30:48;;;;;;;3.90;1.90;;;27.80;90.60;;;;;;5093234;28;20681;-66
2023/08/17 12:33:35;;;;;;;3.45;1.80;;;27.20;88.80;;;;;;5093178;28;20195;-65
2023/08/17 12:36:22;;;;;;;4.30;2.10;;;26.90;90.70;;;;;;5093392;28;20600;-65
2023/08/17 12:39:11;;;;;;;9.27;2.50;;;26.80;94.00;;;;;;5091323;28;20592;-67
2023/08/17 12:41:58;;;;;;;7.40;2.03;;;26.60;99.90;;;;;;5091101;28;20218;-66
2023/08/17 12:44:45;;;;;;;8.75;2.10;;;26.30;99.90;;;;;;5091846;28;20276;-66
2023/08/17 12:47:33;;;;;;;9.18;2.85;;;26.30;99.90;;;;;;5092063;28;20203;-65
2023/08/17 12:50:20;;;;;;;6.50;2.40;;;26.30;99.90;;;;;;5092908;28;20249;-65
2023/08/17 12:53:07;;;;;;;5.40;2.70;;;25.90;99.90;;;;;;5092543;28;20691;-65
2023/08/17 12:55:56;;;;;;;10.35;2.72;;;26.00;99.90;;;;;;5091620;28;20215;-65
2023/08/17 12:58:43;;;;;;;4.25;2.50;;;26.30;99.90;;;;;;5091776;28;20212;-66
2023/08/17 13:01:30;;;;;;;4.88;2.55;;;26.00;99.90;;;;;;5096559;28;20238;-65
2023/08/17 13:04:18;;;;;;;8.77;2.90;;;25.80;99.90;;;;;;5112444;28;20700;-65
2023/08/17 13:07:05;;;;;;;5.50;2.78;;;25.90;99.90;;;;;;5112390;28;20574;-65
2023/08/17 13:09:52;;;;;;;7.30;2.97;;;25.80;99.90;;;;;;5111958;28;20210;-65
2023/08/17 13:12:41;;;;;;;6.72;2.95;;;25.60;99.90;;;;;;5112132;28;20561;-65
2023/08/17 13:15:28;;;;;;;4.47;2.83;;;25.50;99.90;;;;;;5112421;28;20219;-64
2023/08/17 13:18:15;;;;;;;7.53;2.80;;;25.10;99.90;;;;;;5112529;28;20203;-65
2023/08/17 13:21:02;;;;;;;19.52;3.10;;;24.80;99.90;;;;;;5111583;28;20574;-67
2023/08/17 13:23:50;;;;;;;8.68;3.17;;;24.10;99.90;;;;;;5112680;28;20213;-66
2023/08/17 13:26:37;;;;;;;7.55;2.95;;;23.30;99.90;;;;;;5112146;28;20661;-66
2023/08/17 13:29:26;;;;;;;5.27;3.40;;;22.70;99.90;;;;;;5111996;28;20282;-65
2023/08/17 13:32:13;;;;;;;5.80;3.30;;;22.40;99.90;;;;;;5112526;28;20199;-65
2023/08/17 13:35:00;;;;;;;10.30;4.10;;;22.20;99.90;;;;;;5111265;28;20226;-66
2023/08/17 13:37:50;;;;;;;9.63;4.20;;;22.00;99.90;;;;;;5112092;28;20191;-65
2023/08/17 13:40:38;;;;;;;11.03;4.67;;;21.90;99.90;;;;;;5111645;28;20324;-65
2023/08/17 13:43:26;;;;;;;7.80;4.10;;;21.90;99.90;;;;;;5111584;28;20222;-66
2023/08/17 13:46:14;;;;;;;7.13;4.00;;;21.90;99.90;;;;;;5112020;28;20207;-66
2023/08/17 13:49:02;;;;;;;8.07;4.40;;;21.70;99.90;;;;;;5112210;28;20281;-66
2023/08/17 13:51:49;;;;;;;6.70;3.90;;;21.80;99.90;;;;;;5112127;28;20223;-66
2023/08/17 13:54:36;;;;;;;8.13;4.07;;;21.60;99.90;;;;;;5112224;28;20203;-65
2023/08/17 13:57:23;;;;;;;8.83;4.47;;;21.40;99.90;;;;;;5112221;28;20214;-65
2023/08/17 14:00:12;;;;;;;6.20;4.50;;;21.40;99.90;;;;;;5110893;28;20206;-65
2023/08/17 14:03:01;;;;;;;11.53;4.73;;;21.50;99.90;;;;;;5111550;28;20263;-66
2023/08/17 14:05:49;;;;;;;7.63;4.80;;;21.60;99.90;;;;;;5112124;28;20206;-65
2023/08/17 14:08:36;;;;;;;12.47;4.90;;;21.80;99.90;;;;;;5112051;28;20210;-65
2023/08/17 14:11:23;;;;;;;9.03;4.50;;;21.80;99.90;;;;;;5111187;28;20203;-65
2023/08/17 14:14:10;;;;;;;7.43;4.67;;;21.50;99.90;;;;;;5110824;28;20544;-66
2023/08/17 14:16:57;;;;;;;12.40;6.53;;;21.40;99.90;;;;;;5111221;28;20681;-65
2023/08/17 14:19:46;;;;;;;16.63;7.37;;;21.20;99.90;;;;;;5110864;28;20278;-66
2023/08/17 14:22:33;;;;;;;9.30;6.40;;;21.20;99.90;;;;;;5110309;28;20233;-65
2023/08/17 14:25:20;;;;;;;8.50;5.57;;;21.60;99.90;;;;;;5111176;28;20332;-65
2023/08/17 14:28:08;;;;;;;10.77;4.97;;;21.60;99.90;;;;;;5111030;28;20195;-65